createdAt,value
2022-08-05T00:00:56.073Z,100753.66
2022-08-05T00:03:43.476Z,100748.38
2022-08-05T00:06:29.161Z,100763.78
2022-08-05T00:09:00.368Z,100769.25
2022-08-05T00:11:34.762Z,100762.75
2022-08-05T00:14:12.846Z,100750.94
2022-08-05T00:16:53.406Z,100763.59
2022-08-05T00:19:22.275Z,100751.81
2022-08-05T00:21:50.302Z,100766.31
2022-08-05T00:24:24.352Z,100758.09
2022-08-05T00:26:56.435Z,100768.22
2022-08-05T00:29:25.438Z,100791.78
2022-08-05T00:32:13.142Z,100790.94
2022-08-05T00:34:55.584Z,100786.13
2022-08-05T00:37:50.496Z,100798.09
2022-08-05T00:40:17.878Z,100792.63
2022-08-05T00:42:56.841Z,100784.44
2022-08-05T00:45:39.074Z,100789.03
2022-08-05T00:48:11.535Z,100780.84
2022-08-05T00:50:42.034Z,100786.31
2022-08-05T00:54:01.110Z,100793.47
2022-08-05T00:55:59.653Z,100791.78
2022-08-05T00:58:29.072Z,100791.78
2022-08-05T01:00:56.802Z,100784.44
2022-08-05T01:03:33.363Z,100781.88
2022-08-05T01:06:01.708Z,100804.41
2022-08-05T01:08:43.401Z,100809.06
2022-08-05T01:11:13.598Z,100792.63
2022-08-05T01:13:58.835Z,100802.72
2022-08-05T01:16:28.015Z,100813.47
2022-08-05T01:18:59.216Z,100800.84
2022-08-05T01:21:38.607Z,100807.34
2022-08-05T01:24:14.318Z,100811.78
2022-08-05T01:26:45.878Z,100803.59
2022-08-05T01:29:18.620Z,100810.72
2022-08-05T01:31:51.091Z,100809.69
2022-08-05T01:34:19.879Z,100801.88
2022-08-05T01:36:49.931Z,100796.41
2022-08-05T01:39:46.390Z,100780.00
2022-08-05T01:42:06.315Z,100794.03
2022-08-05T01:44:38.562Z,100783.75
2022-08-05T01:47:06.787Z,100776.59
2022-08-05T01:50:00.564Z,100787.91
2022-08-05T01:52:24.741Z,100797.16
2022-08-05T01:54:53.694Z,100785.84
2022-08-05T01:58:11.255Z,100786.66
2022-08-05T02:00:14.614Z,100794.03
2022-08-05T02:02:46.461Z,100793.00
2022-08-05T02:05:18.932Z,100789.59
2022-08-05T02:08:00.061Z,100791.69
2022-08-05T02:10:28.828Z,100792.34
2022-08-05T02:12:57.200Z,100797.81
2022-08-05T02:15:33.368Z,100787.03
2022-08-05T02:18:32.282Z,100785.00
2022-08-05T02:20:53.198Z,100794.03
2022-08-05T02:23:22.327Z,100787.53
2022-08-05T02:25:50.644Z,100783.28
2022-08-05T02:28:28.387Z,100781.38
2022-08-05T02:30:59.404Z,100779.03
2022-08-05T02:33:35.882Z,100786.56
2022-08-05T02:36:06.518Z,100781.09
2022-08-05T02:38:36.991Z,100767.59
2022-08-05T02:41:06.497Z,100779.22
2022-08-05T02:44:05.983Z,100775.47
2022-08-05T02:46:33.546Z,100768.97
2022-08-05T02:49:02.065Z,100781.75
2022-08-05T02:52:02.745Z,100772.72
2022-08-05T02:54:36.019Z,100774.63
2022-08-05T02:57:05.226Z,100768.09
2022-08-05T02:59:50.445Z,100767.41
2022-08-05T03:02:21.862Z,100768.44
2022-08-05T03:04:53.114Z,100761.28
2022-08-05T03:08:00.559Z,100754.09
2022-08-05T03:10:09.328Z,100745.25
2022-08-05T03:12:37.151Z,100740.16
2022-08-05T03:15:06.858Z,100741.38
2022-08-05T03:17:41.418Z,100745.16
2022-08-05T03:20:10.473Z,100746.84
2022-08-05T03:22:44.358Z,100738.44
2022-08-05T03:25:33.974Z,100742.72
2022-08-05T03:28:02.609Z,100741.19
2022-08-05T03:30:33.831Z,100743.72
2022-08-05T03:33:03.190Z,100755.72
2022-08-05T03:35:30.925Z,100760.31
2022-08-05T03:38:01.809Z,100770.06
2022-08-05T03:40:32.478Z,100774.47
2022-08-05T03:43:15.815Z,100759.38
2022-08-05T03:45:57.645Z,100769.19
2022-08-05T03:48:29.172Z,100764.41
2022-08-05T03:52:39.200Z,100759.94
2022-08-05T03:55:07.197Z,100764.41
2022-08-05T03:56:37.970Z,100762.88
2022-08-05T03:59:09.787Z,100773.25
2022-08-05T04:01:37.678Z,100781.81
2022-08-05T04:04:10.694Z,100782.66
2022-08-05T04:06:38.487Z,100792.41
2022-08-05T04:09:15.214Z,100798.69
2022-08-05T04:11:52.401Z,100801.09
2022-08-05T04:14:30.663Z,100804.16
2022-08-05T04:16:58.690Z,100802.31
2022-08-05T04:19:27.938Z,100795.31
2022-08-05T04:22:09.258Z,100790.03
2022-08-05T04:24:44.433Z,100793.59
2022-08-05T04:27:20.217Z,100780.81
2022-08-05T04:30:03.750Z,100773.44
2022-08-05T04:32:33.258Z,100778.53
2022-08-05T04:35:02.387Z,100774.09
2022-08-05T04:38:01.516Z,100783.16
2022-08-05T04:40:20.577Z,100774.63
2022-08-05T04:42:50.202Z,100784.50
2022-08-05T04:45:22.900Z,100771.00
2022-08-05T04:48:04.016Z,100786.41
2022-08-05T04:50:37.399Z,100793.91
2022-08-05T04:53:20.629Z,100807.91
2022-08-05T04:56:00.081Z,100799.22
2022-08-05T04:58:36.549Z,100801.25
2022-08-05T05:01:04.170Z,100806.38
2022-08-05T05:03:32.500Z,100826.41
2022-08-05T05:06:35.821Z,100842.13
2022-08-05T05:08:59.680Z,100850.31
2022-08-05T05:11:41.383Z,100869.63
2022-08-05T05:14:10.296Z,100877.16
2022-08-05T05:16:44.012Z,100872.72
2022-08-05T05:19:18.577Z,100868.97
2022-08-05T05:21:48.563Z,100863.88
2022-08-05T05:24:23.141Z,100866.41
2022-08-05T05:27:10.675Z,100868.13
2022-08-05T05:30:04.316Z,100865.19
2022-08-05T05:32:29.526Z,100853.22
2022-08-05T05:34:57.204Z,100877.34
2022-08-05T05:37:37.270Z,100884.72
2022-08-05T05:40:15.453Z,100916.47
2022-08-05T05:42:42.994Z,100936.50
2022-08-05T05:45:14.834Z,100939.22
2022-08-05T05:48:06.424Z,100945.91
2022-08-05T05:50:30.971Z,100947.97
2022-08-05T05:53:00.037Z,100960.81
2022-08-05T05:55:52.012Z,100953.44
2022-08-05T05:58:15.231Z,100959.28
2022-08-05T06:00:46.441Z,100969.50
2022-08-05T06:03:40.182Z,100975.25
2022-08-05T06:06:01.636Z,100986.88
2022-08-05T06:08:32.619Z,100990.66
2022-08-05T06:11:00.608Z,100990.66
2022-08-05T06:13:28.121Z,100979.72
2022-08-05T06:16:29.830Z,100970.47
2022-08-05T06:18:55.779Z,100965.19
2022-08-05T06:21:36.832Z,100966.72
2022-08-05T06:24:07.819Z,100962.97
2022-08-05T06:26:39.869Z,100961.25
2022-08-05T06:29:25.185Z,100959.16
2022-08-05T06:32:21.005Z,100953.69
2022-08-05T06:34:54.111Z,100958.31
2022-08-05T06:37:56.505Z,100950.97
2022-08-05T06:40:14.046Z,100949.94
2022-08-05T06:42:46.510Z,100962.59
2022-08-05T06:45:21.215Z,100954.38
2022-08-05T06:48:13.803Z,100953.34
2022-08-05T06:50:49.890Z,100962.59
2022-08-05T06:53:19.493Z,100958.81
2022-08-05T06:55:51.326Z,100968.06
2022-08-05T06:58:34.698Z,100980.69
2022-08-05T07:01:04.522Z,100998.16
2022-08-05T07:03:33.195Z,101017.28
2022-08-05T07:06:01.983Z,101017.28
2022-08-05T07:08:33.866Z,101022.75
2022-08-05T07:11:04.611Z,101018.31
2022-08-05T07:13:58.549Z,101005.47
2022-08-05T07:17:56.237Z,101008.22
2022-08-05T07:20:16.420Z,100999.16
2022-08-05T07:22:28.747Z,100980.88
2022-08-05T07:24:58.721Z,100979.00
2022-08-05T07:27:59.833Z,100988.22
2022-08-05T07:30:24.623Z,100992.69
2022-08-05T07:32:55.919Z,100990.78
2022-08-05T07:36:03.940Z,100988.06
2022-08-05T07:38:32.272Z,100989.06
2022-08-05T07:41:16.861Z,100972.47
2022-08-05T07:43:49.471Z,100970.78
2022-08-05T07:46:24.588Z,100969.75
2022-08-05T07:49:02.709Z,100936.91
2022-08-05T07:51:37.240Z,100932.50
2022-08-05T07:54:05.441Z,100967.00
2022-08-05T07:57:00.412Z,100954.38
2022-08-05T07:59:31.094Z,100930.59
2022-08-05T08:02:15.207Z,100916.09
2022-08-05T08:04:45.405Z,100935.25
2022-08-05T08:07:13.242Z,100939.38
2022-08-05T08:09:40.752Z,100945.13
2022-08-05T08:12:27.528Z,100937.97
2022-08-05T08:14:57.266Z,100959.84
2022-08-05T08:17:30.457Z,100976.09
2022-08-05T08:20:22.114Z,100967.88
2022-08-05T08:22:51.043Z,100976.94
2022-08-05T08:25:26.375Z,100980.69
2022-08-05T08:28:03.475Z,100987.88
2022-08-05T08:30:39.215Z,101001.53
2022-08-05T08:33:14.801Z,100998.81
2022-08-05T08:35:53.831Z,101026.16
2022-08-05T08:38:35.435Z,101042.56
2022-08-05T08:41:05.572Z,101051.63
2022-08-05T08:45:24.265Z,101048.03
2022-08-05T08:46:23.029Z,101043.41
2022-08-05T08:49:07.841Z,101047.19
2022-08-05T08:52:03.854Z,101037.09
2022-08-05T08:54:27.517Z,101036.25
2022-08-05T08:56:56.435Z,101037.09
2022-08-05T08:59:27.615Z,101045.31
2022-08-05T09:01:57.322Z,101053.50
2022-08-05T09:04:30.731Z,101051.63
2022-08-05T09:06:58.796Z,101048.03
2022-08-05T09:09:34.808Z,101048.03
2022-08-05T09:12:14.386Z,101046.16
2022-08-05T09:14:57.115Z,101043.41
2022-08-05T09:17:42.919Z,101041.56
2022-08-05T09:20:13.463Z,101042.56
2022-08-05T09:23:05.843Z,101052.50
2022-08-05T09:26:00.898Z,101055.22
2022-08-05T09:28:32.078Z,101051.63
2022-08-05T09:31:43.975Z,101025.13
2022-08-05T09:33:53.791Z,101020.69
2022-08-05T09:36:21.409Z,101030.59
2022-08-05T09:38:58.728Z,101028.72
2022-08-05T09:41:26.293Z,101024.25
2022-08-05T09:44:00.409Z,101007.00
2022-08-05T09:46:28.619Z,100983.22
2022-08-05T09:49:07.859Z,100980.50
2022-08-05T09:51:49.709Z,101000.53
2022-08-05T09:54:28.823Z,100994.19
2022-08-05T09:57:01.358Z,100957.78
2022-08-05T09:59:29.477Z,100985.97
2022-08-05T10:02:04.605Z,101017.78
2022-08-05T10:04:38.635Z,101020.50
2022-08-05T10:07:19.894Z,101006.84
2022-08-05T10:10:13.854Z,101010.41
2022-08-05T10:12:49.164Z,101015.88
2022-08-05T10:15:20.646Z,101037.56
2022-08-05T10:18:03.835Z,101037.75
2022-08-05T10:20:32.721Z,101040.50
2022-08-05T10:23:00.895Z,101055.88
2022-08-05T10:25:28.416Z,101067.66
2022-08-05T10:28:13.551Z,101055.88
2022-08-05T10:32:52.876Z,101043.22
2022-08-05T10:33:34.255Z,101046.81
2022-08-05T10:36:05.006Z,101038.59
2022-08-05T10:38:32.957Z,101038.41
2022-08-05T10:41:03.681Z,101044.75
2022-08-05T10:43:35.823Z,101043.91
2022-08-05T10:46:06.299Z,101027.47
2022-08-05T10:48:53.011Z,101017.59
2022-08-05T10:51:28.869Z,101009.38
2022-08-05T10:53:58.206Z,101010.22
2022-08-05T10:56:26.838Z,101011.06
2022-08-05T10:59:07.210Z,101019.28
2022-08-05T11:01:54.914Z,101027.47
2022-08-05T11:04:31.016Z,101031.94
2022-08-05T11:07:08.137Z,101044.75
2022-08-05T11:09:46.752Z,101038.25
2022-08-05T11:12:33.225Z,101044.41
2022-08-05T11:15:19.564Z,101052.78
2022-08-05T11:17:58.705Z,101041.66
2022-08-05T11:20:43.869Z,101034.47
2022-08-05T11:24:02.795Z,101033.47
2022-08-05T11:26:28.503Z,101045.25
2022-08-05T11:29:06.652Z,101046.97
2022-08-05T11:31:56.713Z,101033.28
2022-08-05T11:34:37.177Z,101046.09
2022-08-05T11:37:06.157Z,101035.13
2022-08-05T11:40:00.457Z,101032.41
2022-08-05T11:42:32.324Z,101040.63
2022-08-05T11:45:05.847Z,101046.97
2022-08-05T11:47:48.777Z,101053.28
2022-08-05T11:50:17.700Z,101058.75
2022-08-05T11:52:46.228Z,101043.16
2022-08-05T11:55:16.573Z,101045.91
2022-08-05T11:58:09.498Z,101040.44
2022-08-05T12:00:38.342Z,101032.22
2022-08-05T12:03:16.597Z,101038.56
2022-08-05T12:05:59.407Z,101040.25
2022-08-05T12:08:27.492Z,101034.78
2022-08-05T12:10:55.164Z,101038.38
2022-08-05T12:13:27.908Z,101035.66
2022-08-05T12:16:16.417Z,101028.28
2022-08-05T12:18:52.300Z,101034.78
2022-08-05T12:21:21.214Z,101032.91
2022-08-05T12:23:54.652Z,101031.84
2022-08-05T12:26:23.197Z,101035.66
2022-08-05T12:28:52.926Z,101032.72
2022-08-05T12:31:23.656Z,101036.31
2022-08-05T12:34:01.484Z,101047.25
2022-08-05T12:36:31.026Z,101050.00
2022-08-05T12:38:58.790Z,101047.25
2022-08-05T12:41:34.531Z,101052.53
2022-08-05T12:44:04.053Z,101058.00
2022-08-05T12:46:32.426Z,101050.00
2022-08-05T12:49:00.786Z,101046.22
2022-08-05T12:52:14.235Z,101057.16
2022-08-05T12:54:23.340Z,101056.13
2022-08-05T12:56:52.357Z,101043.50
2022-08-05T12:59:27.474Z,101048.78
2022-08-05T13:02:10.115Z,101047.91
2022-08-05T13:04:41.864Z,101043.31
2022-08-05T13:07:56.139Z,101048.59
2022-08-05T13:10:11.020Z,101038.69
2022-08-05T13:12:50.735Z,101047.72
2022-08-05T13:15:41.129Z,101045.88
2022-08-05T13:18:19.898Z,101051.34
2022-08-05T13:20:49.390Z,101046.72
2022-08-05T13:23:22.142Z,101040.41
2022-08-05T13:25:51.613Z,101046.72
2022-08-05T13:28:26.676Z,101046.72
2022-08-05T13:30:55.544Z,101053.03
2022-08-05T13:34:21.276Z,101055.75
2022-08-05T13:36:14.354Z,101059.38
2022-08-05T13:38:43.214Z,101061.03
2022-08-05T13:41:11.120Z,101060.19
2022-08-05T13:43:44.562Z,101061.03
2022-08-05T13:47:01.952Z,101063.78
2022-08-05T13:49:11.784Z,101057.28
2022-08-05T13:51:41.203Z,101057.28
2022-08-05T13:54:12.378Z,101057.28
2022-08-05T13:56:44.947Z,101051.81
2022-08-05T13:59:19.498Z,101055.38
2022-08-05T14:01:58.016Z,101055.38
2022-08-05T14:04:50.069Z,101055.38
2022-08-05T14:07:55.563Z,101053.69
2022-08-05T14:10:08.695Z,101051.81
2022-08-05T14:12:36.409Z,101062.56
2022-08-05T14:15:06.022Z,101052.66
2022-08-05T14:17:54.912Z,101047.19
2022-08-05T14:20:27.420Z,101058.13
2022-08-05T14:22:57.516Z,101072.66
2022-08-05T14:25:28.116Z,101077.09
2022-08-05T14:27:55.907Z,101076.25
2022-08-05T14:30:25.551Z,101081.56
2022-08-05T14:32:56.686Z,101070.78
2022-08-05T14:35:37.050Z,101083.41
2022-08-05T14:38:27.814Z,101081.56
2022-08-05T14:40:59.920Z,101084.28
2022-08-05T14:44:02.502Z,101076.25
2022-08-05T14:46:15.604Z,101069.72
2022-08-05T14:48:44.567Z,101069.72
2022-08-05T14:51:17.703Z,101071.63
2022-08-05T14:53:45.367Z,101065.31
2022-08-05T14:56:32.834Z,101062.56
2022-08-05T14:59:00.572Z,101057.94
2022-08-05T15:01:49.060Z,101075.19
2022-08-05T15:04:17.222Z,101067.00
2022-08-05T15:06:49.248Z,101077.94
2022-08-05T15:09:51.156Z,101068.88
2022-08-05T15:12:05.536Z,101058.78
2022-08-05T15:14:34.821Z,101081.72
2022-08-05T15:17:09.759Z,101097.09
2022-08-05T15:19:58.176Z,101097.09
2022-08-05T15:22:27.249Z,101097.09
2022-08-05T15:24:55.381Z,101087.19
2022-08-05T15:27:25.456Z,101080.38
2022-08-05T15:29:56.551Z,101099.84
2022-08-05T15:32:28.676Z,101110.78
2022-08-05T15:34:56.590Z,101127.19
2022-08-05T15:38:33.060Z,101121.72
2022-08-05T15:41:01.187Z,101116.25
2022-08-05T15:43:12.688Z,101109.09
2022-08-05T15:45:47.688Z,101123.44
2022-08-05T15:48:28.750Z,101128.06
2022-08-05T15:50:56.590Z,101130.81
2022-08-05T15:53:26.592Z,101139.00
2022-08-05T15:56:09.120Z,101135.41
2022-08-05T15:58:42.058Z,101127.19
2022-08-05T16:01:16.640Z,101127.00
2022-08-05T16:03:45.127Z,101145.34
2022-08-05T16:06:20.142Z,101152.69
2022-08-05T16:08:50.974Z,101165.31
2022-08-05T16:11:21.087Z,101169.97
2022-08-05T16:14:07.959Z,101163.66
2022-08-05T16:16:39.337Z,101178.16
2022-08-05T16:19:10.353Z,101183.63
2022-08-05T16:21:58.836Z,101183.63
2022-08-05T16:24:40.548Z,101193.75
2022-08-05T16:27:09.751Z,101211.00
2022-08-05T16:29:50.091Z,101229.16
2022-08-05T16:32:28.685Z,101227.44
2022-08-05T16:34:57.277Z,101231.00
2022-08-05T16:38:16.887Z,101234.63
2022-08-05T16:40:29.246Z,101237.34
2022-08-05T16:42:58.169Z,101246.41
2022-08-05T16:46:04.178Z,101267.44
2022-08-05T16:48:25.771Z,101256.50
2022-08-05T16:51:01.438Z,101265.56
2022-08-05T16:54:02.171Z,101256.50
2022-08-05T16:56:18.793Z,101272.94
2022-08-05T16:58:47.461Z,101290.38
2022-08-05T17:01:15.187Z,101303.88
2022-08-05T17:03:43.112Z,101308.50
2022-08-05T17:06:10.831Z,101307.63
2022-08-05T17:08:53.061Z,101307.63
2022-08-05T17:11:25.527Z,101319.44
2022-08-05T17:14:05.883Z,101320.47
2022-08-05T17:16:36.446Z,101326.97
2022-08-05T17:19:07.815Z,101327.84
2022-08-05T17:21:39.774Z,101324.06
2022-08-05T17:24:19.469Z,101325.94
2022-08-05T17:26:57.934Z,101340.66
2022-08-05T17:29:33.915Z,101339.63
2022-08-05T17:32:11.935Z,101352.28
2022-08-05T17:34:47.518Z,101347.84
2022-08-05T17:37:41.232Z,101338.78
2022-08-05T17:40:04.336Z,101335.19
2022-08-05T17:42:33.489Z,101335.19
2022-08-05T17:45:18.005Z,101340.66
2022-08-05T17:47:54.483Z,101354.34
2022-08-05T17:50:28.103Z,101366.16
2022-08-05T17:52:58.995Z,101373.47
2022-08-05T17:55:34.073Z,101370.75
2022-08-05T17:58:04.300Z,101368.88
2022-08-05T18:00:34.568Z,101360.84
2022-08-05T18:03:03.113Z,101368.88
2022-08-05T18:05:35.481Z,101380.00
2022-08-05T18:08:04.582Z,101389.91
2022-08-05T18:10:33.637Z,101395.38
2022-08-05T18:13:01.992Z,101400.84
2022-08-05T18:15:38.605Z,101403.75
2022-08-05T18:18:10.848Z,101404.47
2022-08-05T18:20:39.197Z,101428.38
2022-08-05T18:23:08.994Z,101409.75
2022-08-05T18:25:39.207Z,101423.69
2022-08-05T18:28:07.336Z,101408.09
2022-08-05T18:30:40.322Z,101420.53
2022-08-05T18:33:08.622Z,101434.56
2022-08-05T18:36:00.526Z,101423.38
2022-08-05T18:38:30.845Z,101433.97
2022-08-05T18:41:53.250Z,101436.47
2022-08-05T18:43:48.611Z,101438.75
2022-08-05T18:46:29.093Z,101448.34
2022-08-05T18:48:56.850Z,101454.72
2022-08-05T18:52:04.446Z,101456.16
2022-08-05T18:54:31.856Z,101461.69
2022-08-05T18:57:01.080Z,101459.94
2022-08-05T18:59:43.729Z,101469.47
2022-08-05T19:02:28.061Z,101477.50
2022-08-05T19:05:02.338Z,101488.75
2022-08-05T19:07:46.391Z,101491.91
2022-08-05T19:10:14.546Z,101497.34
2022-08-05T19:12:43.126Z,101507.09
2022-08-05T19:15:56.743Z,101506.84
2022-08-05T19:18:09.053Z,101494.53
2022-08-05T19:20:41.352Z,101496.00
2022-08-05T19:24:04.501Z,101501.88
2022-08-05T19:26:01.665Z,101507.03
2022-08-05T19:28:29.979Z,101512.63
2022-08-05T19:30:58.132Z,101510.31
2022-08-05T19:33:35.904Z,101524.38
2022-08-05T19:36:06.323Z,101523.63
2022-08-05T19:38:35.568Z,101522.25
2022-08-05T19:41:07.165Z,101530.41
2022-08-05T19:44:06.019Z,101519.50
2022-08-05T19:46:29.158Z,101530.66
2022-08-05T19:49:01.099Z,101541.22
2022-08-05T19:52:05.439Z,101535.06
2022-08-05T19:54:26.761Z,101537.22
2022-08-05T19:56:58.974Z,101537.69
2022-08-05T19:59:54.651Z,101543.38
2022-08-05T20:02:15.069Z,101545.81
2022-08-05T20:04:48.470Z,101551.94
2022-08-05T20:07:16.191Z,101564.41
2022-08-05T20:10:04.960Z,101560.38
2022-08-05T20:12:46.343Z,101560.81
2022-08-05T20:15:48.288Z,101575.00
2022-08-05T20:18:09.786Z,101575.81
2022-08-05T20:20:48.773Z,101571.53
2022-08-05T20:23:16.390Z,101572.81
2022-08-05T20:25:43.979Z,101587.09
2022-08-05T20:28:13.687Z,101593.91
2022-08-05T20:30:42.325Z,101601.63
2022-08-05T20:33:11.283Z,101601.63
2022-08-05T20:35:45.550Z,101612.00
2022-08-05T20:38:22.855Z,101618.84
2022-08-05T20:41:00.098Z,101625.13
2022-08-05T20:43:57.460Z,101621.75
2022-08-05T20:46:25.212Z,101628.34
2022-08-05T20:48:53.573Z,101626.25
2022-08-05T20:51:23.917Z,101643.47
2022-08-05T20:53:56.273Z,101642.16
2022-08-05T20:56:29.824Z,101647.00
2022-08-05T20:59:04.071Z,101655.38
2022-08-05T21:01:40.253Z,101660.53
2022-08-05T21:04:10.795Z,101661.69
2022-08-05T21:06:45.222Z,101664.63
2022-08-05T21:09:15.851Z,101671.75
2022-08-05T21:12:07.741Z,101667.13
2022-08-05T21:14:35.289Z,101668.78
2022-08-05T21:17:05.098Z,101671.56
2022-08-05T21:19:46.726Z,101675.91
2022-08-05T21:22:18.383Z,101686.31
2022-08-05T21:24:51.825Z,101677.19
2022-08-05T21:27:20.646Z,101672.56
2022-08-05T21:29:54.216Z,101672.47
2022-08-05T21:32:23.574Z,101679.03
2022-08-05T21:35:08.481Z,101691.69
2022-08-05T21:37:41.437Z,101688.84
2022-08-05T21:40:13.787Z,101696.38
2022-08-05T21:42:45.309Z,101679.31
2022-08-05T21:45:24.054Z,101686.47
2022-08-05T21:47:56.018Z,101688.69
2022-08-05T21:50:25.232Z,101691.34
2022-08-05T21:52:52.897Z,101686.88
2022-08-05T21:56:01.440Z,101693.47
2022-08-05T21:58:11.654Z,101700.16
2022-08-05T22:00:40.149Z,101707.56
2022-08-05T22:03:09.889Z,101715.91
2022-08-05T22:05:48.940Z,101695.59
2022-08-05T22:08:22.239Z,101684.75
2022-08-05T22:10:53.329Z,101690.88
2022-08-05T22:14:19.560Z,101702.13
2022-08-05T22:16:39.115Z,101714.13
2022-08-05T22:18:58.435Z,101720.56
2022-08-05T22:21:27.140Z,101718.09
2022-08-05T22:24:40.648Z,101722.28
2022-08-05T22:27:19.714Z,101724.13
2022-08-05T22:29:47.457Z,101722.69
2022-08-05T22:32:17.533Z,101728.22
2022-08-05T22:34:45.808Z,101739.34
2022-08-05T22:37:13.608Z,101735.50
2022-08-05T22:39:41.344Z,101737.22
2022-08-05T22:42:15.321Z,101742.06
2022-08-05T22:44:48.385Z,101742.31
2022-08-05T22:47:29.061Z,101744.91
2022-08-05T22:50:21.778Z,101751.19
2022-08-05T22:52:46.552Z,101755.63
2022-08-05T22:55:18.897Z,101754.63
2022-08-05T22:57:49.372Z,101757.34
2022-08-05T23:00:18.250Z,101758.19
2022-08-05T23:02:48.780Z,101765.56
2022-08-05T23:05:16.401Z,101758.03
2022-08-05T23:07:48.657Z,101752.41
2022-08-05T23:10:20.224Z,101753.44
2022-08-05T23:12:51.687Z,101765.41
2022-08-05T23:15:29.475Z,101761.84
2022-08-05T23:18:11.366Z,101761.84
2022-08-05T23:20:39.408Z,101759.88
2022-08-05T23:23:08.891Z,101758.28
2022-08-05T23:25:51.215Z,101758.16
2022-08-05T23:28:24.143Z,101761.09
2022-08-05T23:30:56.968Z,101765.56
2022-08-05T23:34:04.915Z,101769.38
2022-08-05T23:36:41.427Z,101768.28
2022-08-05T23:39:17.461Z,101786.63
2022-08-05T23:41:59.978Z,101797.59
2022-08-05T23:44:31.442Z,101790.19
2022-08-05T23:46:59.308Z,101788.13
2022-08-05T23:49:33.817Z,101784.91
2022-08-05T23:52:21.190Z,101785.16
2022-08-05T23:54:49.367Z,101785.38
2022-08-05T23:57:17.009Z,101798.22
